createdAt,value
2022-08-25T00:00:50.705Z,17.3
2022-08-25T00:02:58.779Z,17.2
2022-08-25T00:04:54.344Z,17.2
2022-08-25T00:06:50.573Z,17.1
2022-08-25T00:08:50.486Z,17.1
2022-08-25T00:11:03.946Z,17.1
2022-08-25T00:12:50.362Z,17.1
2022-08-25T00:14:50.302Z,17.0
2022-08-25T00:16:50.459Z,17.0
2022-08-25T00:18:50.416Z,17.0
2022-08-25T00:20:50.272Z,17.0
2022-08-25T00:22:50.208Z,17.0
2022-08-25T00:24:50.310Z,17.0
2022-08-25T00:26:50.594Z,16.9
2022-08-25T00:29:02.268Z,16.9
2022-08-25T00:30:50.926Z,16.9
2022-08-25T00:32:57.907Z,16.8
2022-08-25T00:34:50.646Z,16.8
2022-08-25T00:36:50.173Z,16.8
2022-08-25T00:38:50.017Z,16.8
2022-08-25T00:40:50.873Z,16.7
2022-08-25T00:42:49.897Z,16.7
2022-08-25T00:44:50.764Z,16.7
2022-08-25T00:46:50.138Z,16.7
2022-08-25T00:48:49.954Z,16.7
2022-08-25T00:50:50.002Z,16.7
2022-08-25T00:52:50.557Z,16.7
2022-08-25T00:54:50.587Z,16.6
2022-08-25T00:56:50.585Z,16.6
2022-08-25T00:58:50.485Z,16.6
2022-08-25T01:00:50.330Z,16.6
2022-08-25T01:02:50.464Z,16.6
2022-08-25T01:04:50.135Z,16.6
2022-08-25T01:06:50.328Z,16.6
2022-08-25T01:08:50.185Z,16.6
2022-08-25T01:10:51.242Z,16.6
2022-08-25T01:12:50.127Z,16.6
2022-08-25T01:14:50.209Z,16.5
2022-08-25T01:16:54.443Z,16.5
2022-08-25T01:18:50.504Z,16.5
2022-08-25T01:20:50.662Z,16.5
2022-08-25T01:22:55.795Z,16.4
2022-08-25T01:24:50.619Z,16.4
2022-08-25T01:26:50.731Z,16.4
2022-08-25T01:28:50.661Z,16.4
2022-08-25T01:30:50.961Z,16.4
2022-08-25T01:32:50.842Z,16.4
2022-08-25T01:34:53.214Z,16.4
2022-08-25T01:36:50.591Z,16.3
2022-08-25T01:38:50.614Z,16.3
2022-08-25T01:40:50.535Z,16.3
2022-08-25T01:42:50.491Z,16.3
2022-08-25T01:44:50.468Z,16.3
2022-08-25T01:46:50.748Z,16.3
2022-08-25T01:48:50.546Z,16.3
2022-08-25T01:50:50.484Z,16.2
2022-08-25T01:52:50.331Z,16.2
2022-08-25T01:54:50.290Z,16.2
2022-08-25T01:56:50.455Z,16.2
2022-08-25T01:58:50.405Z,16.2
2022-08-25T02:00:50.160Z,16.2
2022-08-25T02:02:56.006Z,16.2
2022-08-25T02:04:51.134Z,16.2
2022-08-25T02:06:50.330Z,16.2
2022-08-25T02:08:50.038Z,16.2
2022-08-25T02:10:50.072Z,16.2
2022-08-25T02:12:54.512Z,16.1
2022-08-25T02:14:50.382Z,16.1
2022-08-25T02:16:51.151Z,16.1
2022-08-25T02:18:50.409Z,16.1
2022-08-25T02:20:50.404Z,16.0
2022-08-25T02:22:57.536Z,16.0
2022-08-25T02:24:50.305Z,16.0
2022-08-25T02:26:50.024Z,16.0
2022-08-25T02:28:49.884Z,16.0
2022-08-25T02:30:51.159Z,16.0
2022-08-25T02:32:50.202Z,16.0
2022-08-25T02:34:50.893Z,16.0
2022-08-25T02:36:50.214Z,16.0
2022-08-25T02:38:50.154Z,15.9
2022-08-25T02:40:50.170Z,15.9
2022-08-25T02:42:50.137Z,15.9
2022-08-25T02:44:49.996Z,15.9
2022-08-25T02:46:50.207Z,15.9
2022-08-25T02:48:50.274Z,15.9
2022-08-25T02:50:50.346Z,15.9
2022-08-25T02:52:50.401Z,15.8
2022-08-25T02:54:50.326Z,15.8
2022-08-25T02:56:50.569Z,15.8
2022-08-25T02:58:50.621Z,15.8
2022-08-25T03:00:51.600Z,15.8
2022-08-25T03:02:50.761Z,15.8
2022-08-25T03:04:50.441Z,15.8
2022-08-25T03:06:50.684Z,15.8
2022-08-25T03:08:50.583Z,15.8
2022-08-25T03:10:52.437Z,15.8
2022-08-25T03:12:50.319Z,15.7
2022-08-25T03:14:50.914Z,15.7
2022-08-25T03:16:50.520Z,15.6
2022-08-25T03:18:51.254Z,15.6
2022-08-25T03:20:50.005Z,15.6
2022-08-25T03:22:50.920Z,15.6
2022-08-25T03:24:50.751Z,15.6
2022-08-25T03:26:50.043Z,15.6
2022-08-25T03:28:50.584Z,15.6
2022-08-25T03:30:56.580Z,15.6
2022-08-25T03:32:50.528Z,15.5
2022-08-25T03:34:50.112Z,15.5
2022-08-25T03:36:50.157Z,15.5
2022-08-25T03:38:50.967Z,15.5
2022-08-25T03:40:49.975Z,15.5
2022-08-25T03:42:50.865Z,15.5
2022-08-25T03:44:50.849Z,15.4
2022-08-25T03:46:49.960Z,15.4
2022-08-25T03:48:50.122Z,15.4
2022-08-25T03:50:52.442Z,15.4
2022-08-25T03:52:50.554Z,15.4
2022-08-25T03:54:50.454Z,15.4
2022-08-25T03:56:51.857Z,15.4
2022-08-25T03:58:50.745Z,15.4
2022-08-25T04:00:50.815Z,15.4
2022-08-25T04:02:51.210Z,15.3
2022-08-25T04:04:55.687Z,15.3
2022-08-25T04:06:50.644Z,15.3
2022-08-25T04:08:50.618Z,15.3
2022-08-25T04:10:50.411Z,15.3
2022-08-25T04:12:50.537Z,15.3
2022-08-25T04:14:50.601Z,15.3
2022-08-25T04:16:50.364Z,15.3
2022-08-25T04:18:50.223Z,15.3
2022-08-25T04:20:50.237Z,15.2
2022-08-25T04:22:50.211Z,15.2
2022-08-25T04:24:50.050Z,15.2
2022-08-25T04:26:50.114Z,15.2
2022-08-25T04:28:50.225Z,15.2
2022-08-25T04:30:52.615Z,15.2
2022-08-25T04:32:50.787Z,15.2
2022-08-25T04:34:50.023Z,15.2
2022-08-25T04:36:53.197Z,15.2
2022-08-25T04:38:50.300Z,15.2
2022-08-25T04:40:50.327Z,15.2
2022-08-25T04:42:50.240Z,15.1
2022-08-25T04:44:50.216Z,15.1
2022-08-25T04:46:50.416Z,15.1
2022-08-25T04:48:50.476Z,15.1
2022-08-25T04:50:50.592Z,15.1
2022-08-25T04:52:50.668Z,15.1
2022-08-25T04:54:50.749Z,15.1
2022-08-25T04:56:58.532Z,15.1
2022-08-25T04:58:50.127Z,15.1
2022-08-25T05:00:50.445Z,15.2
2022-08-25T05:02:50.526Z,15.2
2022-08-25T05:04:51.094Z,15.2
2022-08-25T05:06:50.323Z,15.2
2022-08-25T05:08:50.284Z,15.2
2022-08-25T05:10:50.034Z,15.2
2022-08-25T05:12:49.967Z,15.2
2022-08-25T05:14:50.842Z,15.2
2022-08-25T05:16:50.397Z,15.3
2022-08-25T05:18:50.427Z,15.3
2022-08-25T05:20:50.457Z,15.4
2022-08-25T05:22:50.298Z,15.4
2022-08-25T05:24:50.242Z,15.4
2022-08-25T05:26:50.656Z,15.4
2022-08-25T05:28:50.489Z,15.6
2022-08-25T05:30:50.351Z,15.6
2022-08-25T05:32:50.309Z,15.8
2022-08-25T05:34:50.748Z,15.8
2022-08-25T05:36:50.021Z,15.9
2022-08-25T05:38:50.105Z,16.0
2022-08-25T05:40:50.909Z,16.1
2022-08-25T05:42:49.943Z,16.1
2022-08-25T05:44:50.895Z,16.2
2022-08-25T05:46:50.146Z,16.3
2022-08-25T05:48:50.083Z,16.3
2022-08-25T05:50:50.135Z,16.3
2022-08-25T05:52:50.040Z,16.4
2022-08-25T05:54:49.979Z,16.5
2022-08-25T05:56:50.128Z,16.5
2022-08-25T05:58:50.161Z,16.6
2022-08-25T06:00:50.452Z,16.6
2022-08-25T06:02:50.525Z,16.7
2022-08-25T06:04:50.769Z,16.9
2022-08-25T06:06:50.433Z,17.0
2022-08-25T06:08:50.358Z,17.0
2022-08-25T06:10:50.311Z,17.0
2022-08-25T06:12:50.146Z,17.1
2022-08-25T06:14:50.003Z,17.1
2022-08-25T06:16:50.068Z,17.3
2022-08-25T06:18:49.964Z,17.3
2022-08-25T06:20:50.771Z,17.4
2022-08-25T06:22:50.621Z,17.5
2022-08-25T06:24:50.494Z,17.5
2022-08-25T06:26:50.680Z,17.6
2022-08-25T06:28:50.627Z,17.6
2022-08-25T06:30:50.597Z,17.7
2022-08-25T06:32:50.732Z,17.8
2022-08-25T06:34:50.167Z,17.9
2022-08-25T06:36:50.414Z,17.9
2022-08-25T06:38:50.550Z,18.1
2022-08-25T06:40:50.379Z,18.2
2022-08-25T06:42:50.409Z,18.2
2022-08-25T06:44:50.330Z,18.3
2022-08-25T06:46:50.797Z,18.5
2022-08-25T06:48:50.673Z,18.5
2022-08-25T06:50:50.692Z,18.6
2022-08-25T06:52:50.500Z,18.7
2022-08-25T06:54:50.467Z,18.8
2022-08-25T06:56:50.764Z,18.8
2022-08-25T06:58:50.597Z,18.9
2022-08-25T07:00:50.864Z,19.0
2022-08-25T07:02:53.893Z,19.0
2022-08-25T07:04:50.200Z,19.1
2022-08-25T07:06:50.285Z,19.2
2022-08-25T07:08:50.154Z,19.2
2022-08-25T07:10:50.026Z,19.4
2022-08-25T07:12:50.051Z,19.5
2022-08-25T07:15:20.638Z,19.6
2022-08-25T07:16:50.887Z,19.7
2022-08-25T07:18:51.268Z,19.7
2022-08-25T07:20:50.132Z,19.8
2022-08-25T07:22:50.382Z,19.9
2022-08-25T07:24:50.130Z,20.0
2022-08-25T07:26:50.461Z,20.1
2022-08-25T07:28:50.659Z,20.1
2022-08-25T07:30:52.613Z,20.2
2022-08-25T07:32:55.828Z,20.4
2022-08-25T07:34:53.122Z,20.4
2022-08-25T07:36:50.671Z,20.5
2022-08-25T07:38:51.478Z,20.6
2022-08-25T07:40:57.290Z,20.6
2022-08-25T07:42:50.361Z,20.7
2022-08-25T07:44:50.758Z,20.7
2022-08-25T07:46:51.371Z,20.8
2022-08-25T07:48:53.877Z,20.9
2022-08-25T07:50:51.692Z,21.0
2022-08-25T07:52:59.898Z,21.1
2022-08-25T07:54:50.937Z,21.1
2022-08-25T07:56:50.068Z,21.2
2022-08-25T07:58:50.261Z,21.4
2022-08-25T08:00:51.138Z,21.4
2022-08-25T08:02:50.399Z,21.5
2022-08-25T08:04:50.571Z,21.5
2022-08-25T08:06:50.898Z,21.7
2022-08-25T08:08:50.155Z,21.8
2022-08-25T08:11:05.756Z,21.8
2022-08-25T08:12:51.755Z,21.8
2022-08-25T08:14:50.776Z,22.0
2022-08-25T08:16:50.249Z,22.1
2022-08-25T08:18:50.261Z,22.2
2022-08-25T08:20:50.274Z,22.2
2022-08-25T08:22:50.187Z,22.2
2022-08-25T08:24:57.209Z,22.3
2022-08-25T08:26:59.699Z,22.4
2022-08-25T08:28:52.609Z,22.5
2022-08-25T08:30:55.805Z,22.5
2022-08-25T08:33:12.904Z,22.6
2022-08-25T08:34:52.010Z,22.6
2022-08-25T08:36:50.150Z,22.8
2022-08-25T08:38:50.376Z,22.8
2022-08-25T08:40:54.043Z,22.8
2022-08-25T08:42:52.011Z,22.9
2022-08-25T08:44:50.253Z,23.0
2022-08-25T08:46:54.565Z,23.1
2022-08-25T08:48:50.793Z,23.2
2022-08-25T08:50:51.494Z,23.2
2022-08-25T08:52:50.938Z,23.2
2022-08-25T08:54:50.907Z,23.3
2022-08-25T08:56:53.144Z,23.4
2022-08-25T08:58:50.683Z,23.5
2022-08-25T09:00:52.945Z,23.5
2022-08-25T09:02:52.715Z,23.6
2022-08-25T09:04:52.491Z,23.6
2022-08-25T09:06:49.940Z,23.7
2022-08-25T09:08:50.728Z,23.8
2022-08-25T09:10:54.585Z,23.8
2022-08-25T09:12:51.330Z,23.9
2022-08-25T09:14:54.661Z,23.9
2022-08-25T09:16:51.152Z,24.0
2022-08-25T09:18:52.912Z,24.1
2022-08-25T09:20:49.990Z,24.1
2022-08-25T09:22:54.142Z,24.2
2022-08-25T09:24:51.491Z,24.3
2022-08-25T09:26:50.749Z,24.4
2022-08-25T09:28:51.788Z,24.5
2022-08-25T09:30:50.856Z,24.5
2022-08-25T09:32:53.774Z,24.6
2022-08-25T09:34:50.087Z,24.6
2022-08-25T09:36:50.598Z,24.7
2022-08-25T09:38:50.752Z,24.8
2022-08-25T09:40:51.208Z,24.8
2022-08-25T09:42:50.353Z,25.0
2022-08-25T09:44:50.613Z,25.1
2022-08-25T09:46:51.330Z,25.1
2022-08-25T09:48:58.059Z,25.2
2022-08-25T09:50:50.176Z,25.3
2022-08-25T09:52:54.003Z,25.3
2022-08-25T09:54:49.966Z,25.4
2022-08-25T09:56:50.160Z,25.4
2022-08-25T09:58:50.078Z,25.6
2022-08-25T10:00:50.478Z,25.6
2022-08-25T10:02:50.432Z,25.7
2022-08-25T10:06:50.505Z,25.8
2022-08-25T10:08:50.820Z,25.8
2022-08-25T10:10:50.039Z,25.9
2022-08-25T10:13:00.155Z,25.8
2022-08-25T10:14:54.918Z,25.9
2022-08-25T10:16:50.766Z,25.9
2022-08-25T10:18:50.401Z,26.0
2022-08-25T10:20:50.495Z,26.0
2022-08-25T10:22:51.045Z,26.2
2022-08-25T10:24:50.150Z,26.2
2022-08-25T10:26:50.654Z,26.2
2022-08-25T10:28:50.848Z,26.2
2022-08-25T10:30:51.108Z,26.2
2022-08-25T10:32:50.200Z,26.3
2022-08-25T10:34:52.940Z,26.3
2022-08-25T10:36:50.726Z,26.3
2022-08-25T10:38:50.717Z,26.4
2022-08-25T10:40:50.717Z,26.4
2022-08-25T10:42:50.745Z,26.4
2022-08-25T10:44:50.607Z,26.5
2022-08-25T10:46:50.672Z,26.5
2022-08-25T10:48:51.928Z,26.6
2022-08-25T10:50:50.828Z,26.6
2022-08-25T10:52:50.487Z,26.6
2022-08-25T10:54:50.989Z,26.7
2022-08-25T10:56:53.546Z,26.7
2022-08-25T10:58:49.940Z,26.7
2022-08-25T11:00:50.637Z,26.8
2022-08-25T11:02:50.081Z,26.8
2022-08-25T11:04:50.966Z,26.9
2022-08-25T11:06:55.149Z,27.0
2022-08-25T11:08:50.153Z,27.0
2022-08-25T11:10:52.310Z,27.0
2022-08-25T11:12:51.256Z,27.0
2022-08-25T11:14:50.705Z,27.1
2022-08-25T11:16:50.385Z,27.2
2022-08-25T11:18:51.275Z,27.2
2022-08-25T11:20:50.010Z,27.2
2022-08-25T11:22:49.933Z,27.2
2022-08-25T11:24:50.128Z,27.2
2022-08-25T11:26:50.189Z,27.2
2022-08-25T11:28:50.197Z,27.2
2022-08-25T11:30:50.348Z,27.3
2022-08-25T11:32:51.258Z,27.2
2022-08-25T11:34:50.714Z,27.3
2022-08-25T11:36:51.424Z,27.3
2022-08-25T11:38:49.988Z,27.3
2022-08-25T11:40:50.773Z,27.3
2022-08-25T11:42:50.756Z,27.3
2022-08-25T11:44:55.356Z,27.3
2022-08-25T11:46:50.839Z,27.3
2022-08-25T11:48:51.110Z,27.3
2022-08-25T11:50:50.101Z,27.2
2022-08-25T11:52:51.520Z,27.2
2022-08-25T11:54:50.460Z,27.2
2022-08-25T11:56:50.858Z,27.2
2022-08-25T11:58:50.752Z,27.2
2022-08-25T12:00:50.963Z,27.2
2022-08-25T12:02:49.938Z,27.2
2022-08-25T12:04:54.235Z,27.2
2022-08-25T12:06:53.575Z,27.2
2022-08-25T12:08:50.408Z,27.2
2022-08-25T12:10:50.989Z,27.2
2022-08-25T12:12:50.666Z,27.2
2022-08-25T12:14:50.504Z,27.2
2022-08-25T12:16:52.383Z,27.2
2022-08-25T12:18:50.931Z,27.2
2022-08-25T12:20:49.979Z,27.2
2022-08-25T12:22:51.033Z,27.3
2022-08-25T12:24:50.375Z,27.3
2022-08-25T12:26:50.725Z,27.4
2022-08-25T12:28:51.200Z,27.5
2022-08-25T12:30:51.217Z,27.5
2022-08-25T12:32:50.513Z,27.6
2022-08-25T12:34:50.895Z,27.7
2022-08-25T12:36:50.247Z,27.8
2022-08-25T12:38:52.823Z,27.8
2022-08-25T12:40:50.259Z,27.9
2022-08-25T12:42:50.841Z,28.0
2022-08-25T12:44:50.839Z,28.2
2022-08-25T12:46:51.807Z,28.2
2022-08-25T12:48:50.712Z,28.4
2022-08-25T12:50:50.699Z,28.4
2022-08-25T12:52:49.966Z,28.6
2022-08-25T12:54:50.092Z,28.8
2022-08-25T12:56:50.380Z,28.8
2022-08-25T12:59:01.627Z,29.0
2022-08-25T13:01:01.082Z,29.2
2022-08-25T13:02:53.198Z,29.2
2022-08-25T13:04:50.368Z,29.2
2022-08-25T13:06:50.631Z,29.2
2022-08-25T13:08:52.089Z,29.2
2022-08-25T13:10:50.646Z,29.1
2022-08-25T13:12:50.344Z,29.0
2022-08-25T13:14:50.603Z,29.0
2022-08-25T13:16:50.980Z,29.0
2022-08-25T13:18:52.138Z,28.9
2022-08-25T13:20:50.777Z,28.8
2022-08-25T13:22:58.225Z,28.8
2022-08-25T13:24:51.481Z,28.7
2022-08-25T13:26:50.228Z,28.7
2022-08-25T13:28:50.889Z,28.7
2022-08-25T13:30:50.855Z,28.7
2022-08-25T13:32:51.418Z,28.8
2022-08-25T13:36:59.130Z,28.8
2022-08-25T13:38:50.257Z,28.8
2022-08-25T13:40:50.470Z,28.9
2022-08-25T13:42:58.220Z,28.9
2022-08-25T13:44:54.225Z,29.0
2022-08-25T13:46:50.711Z,29.0
2022-08-25T13:48:50.520Z,29.1
2022-08-25T13:50:53.430Z,29.2
2022-08-25T13:52:50.792Z,29.2
2022-08-25T13:54:50.763Z,29.4
2022-08-25T13:56:52.893Z,29.4
2022-08-25T13:58:49.968Z,29.4
2022-08-25T14:00:54.089Z,29.6
2022-08-25T14:02:51.118Z,29.6
2022-08-25T14:04:54.099Z,29.6
2022-08-25T14:06:50.418Z,29.5
2022-08-25T14:08:55.202Z,29.5
2022-08-25T14:10:50.839Z,29.5
2022-08-25T14:12:51.055Z,29.5
2022-08-25T14:14:54.023Z,29.4
2022-08-25T14:16:57.958Z,29.4
2022-08-25T14:18:50.184Z,29.4
2022-08-25T14:20:50.728Z,29.4
2022-08-25T14:22:51.119Z,29.4
2022-08-25T14:24:50.659Z,29.5
2022-08-25T14:26:55.217Z,29.6
2022-08-25T14:28:50.266Z,29.6
2022-08-25T14:30:52.245Z,29.6
2022-08-25T14:32:52.026Z,29.6
2022-08-25T14:34:50.454Z,29.7
2022-08-25T14:36:51.099Z,29.9
2022-08-25T14:38:55.539Z,30.1
2022-08-25T14:40:51.002Z,30.1
2022-08-25T14:42:50.623Z,30.2
2022-08-25T14:44:50.027Z,30.2
2022-08-25T14:46:50.263Z,30.4
2022-08-25T14:48:50.133Z,30.4
2022-08-25T14:50:51.723Z,30.4
2022-08-25T14:52:54.401Z,30.4
2022-08-25T14:54:50.015Z,30.4
2022-08-25T14:56:50.265Z,30.4
2022-08-25T14:58:54.715Z,30.4
2022-08-25T15:00:51.446Z,30.4
2022-08-25T15:02:53.779Z,30.5
2022-08-25T15:04:52.352Z,30.6
2022-08-25T15:06:51.939Z,30.6
2022-08-25T15:08:49.914Z,30.6
2022-08-25T15:10:50.870Z,30.6
2022-08-25T15:12:55.189Z,30.7
2022-08-25T15:14:50.055Z,30.7
2022-08-25T15:16:50.835Z,30.7
2022-08-25T15:18:52.067Z,30.7
2022-08-25T15:20:50.853Z,30.7
2022-08-25T15:22:50.522Z,30.6
2022-08-25T15:24:53.073Z,30.6
2022-08-25T15:28:50.566Z,30.6
2022-08-25T15:30:50.894Z,30.6
2022-08-25T15:32:56.690Z,30.7
2022-08-25T15:34:50.525Z,30.6
2022-08-25T15:36:50.832Z,30.6
2022-08-25T15:38:50.768Z,30.6
2022-08-25T15:40:50.778Z,30.6
2022-08-25T15:42:50.637Z,30.6
2022-08-25T15:44:54.114Z,30.5
2022-08-25T15:46:50.940Z,30.5
2022-08-25T15:48:50.107Z,30.4
2022-08-25T15:50:50.083Z,30.2
2022-08-25T15:52:50.247Z,30.1
2022-08-25T15:54:50.465Z,30.0
2022-08-25T15:56:52.759Z,30.0
2022-08-25T15:58:50.891Z,29.9
2022-08-25T16:00:57.254Z,29.9
2022-08-25T16:02:50.528Z,29.8
2022-08-25T16:04:50.799Z,29.6
2022-08-25T16:06:51.379Z,29.6
2022-08-25T16:08:50.363Z,29.6
2022-08-25T16:10:50.202Z,29.6
2022-08-25T16:12:50.296Z,29.6
2022-08-25T16:14:52.566Z,29.5
2022-08-25T16:16:51.948Z,29.5
2022-08-25T16:18:50.849Z,29.4
2022-08-25T16:20:50.881Z,29.4
2022-08-25T16:22:50.748Z,29.3
2022-08-25T16:24:49.938Z,29.3
2022-08-25T16:26:52.107Z,29.3
2022-08-25T16:28:50.411Z,29.2
2022-08-25T16:30:53.620Z,29.1
2022-08-25T16:32:50.330Z,29.1
2022-08-25T16:34:50.826Z,29.1
2022-08-25T16:36:52.829Z,29.1
2022-08-25T16:38:50.769Z,29.0
2022-08-25T16:40:51.889Z,29.0
2022-08-25T16:42:51.225Z,29.0
2022-08-25T16:44:54.384Z,28.9
2022-08-25T16:46:51.373Z,28.9
2022-08-25T16:48:50.393Z,28.9
2022-08-25T16:50:50.168Z,28.8
2022-08-25T16:52:50.849Z,28.8
2022-08-25T16:54:51.439Z,28.7
2022-08-25T16:56:55.755Z,28.7
2022-08-25T16:58:52.672Z,28.7
2022-08-25T17:00:50.941Z,28.7
2022-08-25T17:02:50.349Z,28.7
2022-08-25T17:04:52.258Z,28.6
2022-08-25T17:06:52.561Z,28.6
2022-08-25T17:08:50.689Z,28.6
2022-08-25T17:10:50.434Z,28.6
2022-08-25T17:12:50.655Z,28.6
2022-08-25T17:14:50.555Z,28.6
2022-08-25T17:16:51.349Z,28.5
2022-08-25T17:18:50.712Z,28.5
2022-08-25T17:20:51.713Z,28.5
2022-08-25T17:22:50.709Z,28.5
2022-08-25T17:25:02.431Z,28.4
2022-08-25T17:26:50.805Z,28.4
2022-08-25T17:28:50.636Z,28.4
2022-08-25T17:30:51.067Z,28.3
2022-08-25T17:32:52.817Z,28.3
2022-08-25T17:34:50.591Z,28.2
2022-08-25T17:36:50.829Z,28.2
2022-08-25T17:38:50.815Z,28.1
2022-08-25T17:40:50.910Z,28.1
2022-08-25T17:42:51.898Z,28.1
2022-08-25T17:44:50.852Z,28.0
2022-08-25T17:46:52.260Z,27.9
2022-08-25T17:48:50.507Z,27.9
2022-08-25T17:50:50.765Z,27.8
2022-08-25T17:52:50.692Z,27.8
2022-08-25T17:54:54.326Z,27.7
2022-08-25T17:56:50.208Z,27.6
2022-08-25T17:58:50.169Z,27.6
2022-08-25T18:00:50.088Z,27.6
2022-08-25T18:02:50.120Z,27.5
2022-08-25T18:04:50.699Z,27.4
2022-08-25T18:06:50.328Z,27.3
2022-08-25T18:09:00.373Z,27.2
2022-08-25T18:10:50.896Z,27.2
2022-08-25T18:12:50.728Z,27.1
2022-08-25T18:14:50.637Z,27.0
2022-08-25T18:16:53.447Z,26.9
2022-08-25T18:18:53.110Z,26.9
2022-08-25T18:20:50.086Z,26.7
2022-08-25T18:22:50.751Z,26.6
2022-08-25T18:24:50.656Z,26.5
2022-08-25T18:26:50.056Z,26.3
2022-08-25T18:28:50.098Z,26.2
2022-08-25T18:30:50.172Z,26.2
2022-08-25T18:32:49.939Z,26.1
2022-08-25T18:34:52.910Z,26.0
2022-08-25T18:36:52.770Z,25.9
2022-08-25T18:38:58.654Z,25.9
2022-08-25T18:40:51.226Z,25.8
2022-08-25T18:42:52.244Z,25.7
2022-08-25T18:44:50.297Z,25.5
2022-08-25T18:46:50.682Z,25.5
2022-08-25T18:48:53.537Z,25.4
2022-08-25T18:50:52.262Z,25.4
2022-08-25T18:52:55.578Z,25.3
2022-08-25T18:54:53.973Z,25.1
2022-08-25T18:56:50.450Z,25.1
2022-08-25T18:58:51.292Z,25.0
2022-08-25T19:00:50.273Z,24.9
2022-08-25T19:02:51.183Z,24.8
2022-08-25T19:04:51.027Z,24.8
2022-08-25T19:06:52.179Z,24.6
2022-08-25T19:08:50.634Z,24.6
2022-08-25T19:10:50.684Z,24.5
2022-08-25T19:12:50.629Z,24.4
2022-08-25T19:14:50.625Z,24.4
2022-08-25T19:16:52.735Z,24.3
2022-08-25T19:18:52.737Z,24.2
2022-08-25T19:20:53.094Z,24.1
2022-08-25T19:22:50.533Z,24.0
2022-08-25T19:24:50.369Z,24.0
2022-08-25T19:26:55.183Z,23.9
2022-08-25T19:28:50.042Z,23.8
2022-08-25T19:30:51.445Z,23.8
2022-08-25T19:32:50.572Z,23.7
2022-08-25T19:34:52.008Z,23.7
2022-08-25T19:36:50.682Z,23.6
2022-08-25T19:38:52.205Z,23.5
2022-08-25T19:40:50.136Z,23.4
2022-08-25T19:42:55.006Z,23.4
2022-08-25T19:44:52.928Z,23.3
2022-08-25T19:46:51.116Z,23.2
2022-08-25T19:48:52.776Z,23.1
2022-08-25T19:50:56.600Z,23.1
2022-08-25T19:52:50.967Z,23.0
2022-08-25T19:54:52.194Z,22.9
2022-08-25T19:56:56.044Z,22.9
2022-08-25T19:58:51.067Z,22.8
2022-08-25T20:00:52.273Z,22.7
2022-08-25T20:02:50.582Z,22.7
2022-08-25T20:04:50.677Z,22.6
2022-08-25T20:06:50.777Z,22.6
2022-08-25T20:09:01.045Z,22.5
2022-08-25T20:10:49.968Z,22.5
2022-08-25T20:12:49.962Z,22.4
2022-08-25T20:14:50.784Z,22.3
2022-08-25T20:16:52.033Z,22.2
2022-08-25T20:18:50.457Z,22.2
2022-08-25T20:20:50.632Z,22.2
2022-08-25T20:22:50.925Z,22.1
2022-08-25T20:24:58.755Z,22.1
2022-08-25T20:26:50.062Z,22.0
2022-08-25T20:28:50.893Z,21.9
2022-08-25T20:30:51.074Z,21.9
2022-08-25T20:32:50.017Z,21.8
2022-08-25T20:34:52.051Z,21.8
2022-08-25T20:36:50.838Z,21.7
2022-08-25T20:38:50.290Z,21.7
2022-08-25T20:40:50.104Z,21.7
2022-08-25T20:42:50.097Z,21.6
2022-08-25T20:44:49.914Z,21.6
2022-08-25T20:46:54.951Z,21.5
2022-08-25T20:48:50.753Z,21.5
2022-08-25T20:50:58.326Z,21.5
2022-08-25T20:52:50.189Z,21.4
2022-08-25T20:54:51.606Z,21.4
2022-08-25T20:56:51.043Z,21.4
2022-08-25T20:58:50.169Z,21.4
2022-08-25T21:00:50.103Z,21.3
2022-08-25T21:02:50.365Z,21.3
2022-08-25T21:04:50.981Z,21.2
2022-08-25T21:06:50.218Z,21.2
2022-08-25T21:08:49.969Z,21.2
2022-08-25T21:10:50.880Z,21.2
2022-08-25T21:12:53.913Z,21.1
2022-08-25T21:14:50.860Z,21.1
2022-08-25T21:16:50.371Z,21.1
2022-08-25T21:18:50.399Z,21.1
2022-08-25T21:20:50.241Z,21.0
2022-08-25T21:22:50.674Z,21.0
2022-08-25T21:24:50.545Z,21.0
2022-08-25T21:26:50.793Z,21.0
2022-08-25T21:28:50.646Z,20.9
2022-08-25T21:30:55.559Z,20.9
2022-08-25T21:32:54.363Z,20.8
2022-08-25T21:34:51.007Z,20.8
2022-08-25T21:36:50.195Z,20.8
2022-08-25T21:38:50.160Z,20.8
2022-08-25T21:40:52.101Z,20.8
2022-08-25T21:42:50.232Z,20.7
2022-08-25T21:44:50.140Z,20.7
2022-08-25T21:46:55.190Z,20.7
2022-08-25T21:48:50.294Z,20.7
2022-08-25T21:50:50.617Z,20.6
2022-08-25T21:52:55.208Z,20.6
2022-08-25T21:54:50.196Z,20.6
2022-08-25T21:56:50.530Z,20.6
2022-08-25T21:58:50.401Z,20.6
2022-08-25T22:00:50.318Z,20.6
2022-08-25T22:02:51.000Z,20.6
2022-08-25T22:04:50.702Z,20.6
2022-08-25T22:06:50.130Z,20.6
2022-08-25T22:08:49.988Z,20.6
2022-08-25T22:10:50.968Z,20.5
2022-08-25T22:12:50.810Z,20.5
2022-08-25T22:14:50.835Z,20.5
2022-08-25T22:16:50.397Z,20.5
2022-08-25T22:18:51.210Z,20.5
2022-08-25T22:20:50.389Z,20.5
2022-08-25T22:22:50.330Z,20.4
2022-08-25T22:24:50.969Z,20.4
2022-08-25T22:26:50.778Z,20.4
2022-08-25T22:28:50.673Z,20.4
2022-08-25T22:30:50.736Z,20.4
2022-08-25T22:32:50.097Z,20.3
2022-08-25T22:34:50.618Z,20.3
2022-08-25T22:37:00.154Z,20.2
2022-08-25T22:38:51.652Z,20.2
2022-08-25T22:40:50.571Z,20.2
2022-08-25T22:42:50.519Z,20.2
2022-08-25T22:44:50.784Z,20.1
2022-08-25T22:46:49.979Z,20.1
2022-08-25T22:48:52.714Z,20.1
2022-08-25T22:50:50.921Z,20.0
2022-08-25T22:52:51.330Z,20.0
2022-08-25T22:54:50.332Z,20.0
2022-08-25T22:56:50.724Z,20.0
2022-08-25T22:58:53.630Z,20.0
2022-08-25T23:00:51.929Z,20.0
2022-08-25T23:02:50.974Z,20.0
2022-08-25T23:04:55.984Z,19.9
2022-08-25T23:06:50.349Z,19.9
2022-08-25T23:08:50.304Z,19.8
2022-08-25T23:10:50.317Z,19.8
2022-08-25T23:12:50.366Z,19.8
2022-08-25T23:14:50.517Z,19.8
2022-08-25T23:16:50.782Z,19.8
2022-08-25T23:18:50.724Z,19.8
2022-08-25T23:20:50.717Z,19.8
2022-08-25T23:22:53.963Z,19.8
2022-08-25T23:24:51.127Z,19.7
2022-08-25T23:26:51.689Z,19.7
2022-08-25T23:28:50.771Z,19.7
2022-08-25T23:30:59.898Z,19.7
2022-08-25T23:32:50.791Z,19.6
2022-08-25T23:34:50.558Z,19.6
2022-08-25T23:36:50.879Z,19.6
2022-08-25T23:38:54.429Z,19.6
2022-08-25T23:40:50.429Z,19.5
2022-08-25T23:42:50.654Z,19.5
2022-08-25T23:44:50.861Z,19.4
2022-08-25T23:46:49.960Z,19.4
2022-08-25T23:48:49.978Z,19.4
2022-08-25T23:50:54.632Z,19.4
2022-08-25T23:52:50.753Z,19.3
2022-08-25T23:54:50.755Z,19.3
2022-08-25T23:56:52.980Z,19.2
2022-08-25T23:58:50.911Z,19.2
